createdAt,value
2023-06-22T00:00:29.604Z,19.89
2023-06-22T00:01:00.362Z,19.87
2023-06-22T00:01:30.830Z,19.89
2023-06-22T00:02:01.672Z,19.87
2023-06-22T00:02:32.651Z,19.87
2023-06-22T00:03:03.216Z,19.90
2023-06-22T00:03:33.751Z,19.87
2023-06-22T00:04:04.774Z,19.89
2023-06-22T00:04:35.241Z,19.89
2023-06-22T00:05:06.188Z,19.87
2023-06-22T00:05:37.387Z,19.87
2023-06-22T00:06:07.891Z,19.86
2023-06-22T00:07:09.729Z,19.86
2023-06-22T00:07:40.661Z,19.85
2023-06-22T00:08:11.592Z,19.82
2023-06-22T00:08:42.526Z,19.82
2023-06-22T00:09:13.449Z,19.83
2023-06-22T00:09:44.427Z,19.82
2023-06-22T00:10:15.426Z,19.83
2023-06-22T00:10:45.955Z,19.82
2023-06-22T00:11:15.480Z,19.83
2023-06-22T00:11:46.980Z,19.83
2023-06-22T00:12:17.810Z,19.85
2023-06-22T00:12:47.327Z,19.85
2023-06-22T00:13:19.901Z,19.83
2023-06-22T00:13:49.824Z,19.82
2023-06-22T00:14:51.500Z,19.87
2023-06-22T00:15:22.415Z,19.87
2023-06-22T00:15:53.348Z,19.87
2023-06-22T00:16:23.833Z,19.89
2023-06-22T00:16:54.752Z,19.87
2023-06-22T00:17:25.804Z,19.86
2023-06-22T00:17:56.724Z,19.86
2023-06-22T00:18:27.662Z,19.89
2023-06-22T00:18:58.597Z,19.87
2023-06-22T00:19:29.572Z,19.87
2023-06-22T00:19:59.218Z,19.87
2023-06-22T00:20:31.577Z,19.89
2023-06-22T00:21:02.126Z,19.89
2023-06-22T00:21:33.061Z,19.87
2023-06-22T00:22:04.003Z,19.89
2023-06-22T00:22:34.927Z,19.89
2023-06-22T00:23:05.848Z,19.89
2023-06-22T00:23:36.759Z,19.87
2023-06-22T00:24:07.679Z,19.86
2023-06-22T00:24:37.529Z,19.85
2023-06-22T00:25:09.443Z,19.85
2023-06-22T00:25:40.377Z,19.83
2023-06-22T00:26:11.358Z,19.82
2023-06-22T00:26:41.217Z,19.82
2023-06-22T00:27:12.108Z,19.82
2023-06-22T00:27:44.109Z,19.80
2023-06-22T00:28:15.052Z,19.76
2023-06-22T00:28:45.954Z,19.79
2023-06-22T00:29:16.898Z,19.75
2023-06-22T00:29:47.844Z,19.72
2023-06-22T00:30:18.772Z,19.71
2023-06-22T00:30:49.787Z,19.68
2023-06-22T00:31:20.387Z,19.67
2023-06-22T00:32:21.712Z,19.62
2023-06-22T00:32:52.773Z,19.62
2023-06-22T00:33:23.223Z,19.65
2023-06-22T00:33:53.168Z,19.65
2023-06-22T00:34:25.059Z,19.65
2023-06-22T00:34:55.978Z,19.65
2023-06-22T00:35:26.889Z,19.65
2023-06-22T00:35:57.824Z,19.62
2023-06-22T00:36:28.769Z,19.62
2023-06-22T00:36:59.700Z,19.62
2023-06-22T00:37:30.658Z,19.60
2023-06-22T00:38:00.280Z,19.58
2023-06-22T00:38:32.194Z,19.57
2023-06-22T00:39:03.139Z,19.55
2023-06-22T00:39:33.078Z,19.52
2023-06-22T00:40:04.908Z,19.52
2023-06-22T00:40:35.959Z,19.50
2023-06-22T00:41:06.873Z,19.50
2023-06-22T00:41:37.809Z,19.52
2023-06-22T00:42:07.670Z,19.50
2023-06-22T00:42:39.591Z,19.52
2023-06-22T00:43:10.582Z,19.52
2023-06-22T00:43:41.490Z,19.50
2023-06-22T00:44:12.490Z,19.50
2023-06-22T00:44:42.119Z,19.50
2023-06-22T00:45:14.036Z,19.50
2023-06-22T00:45:44.952Z,19.47
2023-06-22T00:46:15.903Z,19.49
2023-06-22T00:46:46.858Z,19.47
2023-06-22T00:47:17.808Z,19.45
2023-06-22T00:47:48.760Z,19.46
2023-06-22T00:48:19.733Z,19.46
2023-06-22T00:48:50.671Z,19.45
2023-06-22T00:49:52.153Z,19.45
2023-06-22T00:50:21.808Z,19.46
2023-06-22T00:50:53.753Z,19.45
2023-06-22T00:51:24.681Z,19.47
2023-06-22T00:51:55.592Z,19.46
2023-06-22T00:52:26.543Z,19.45
2023-06-22T00:52:57.569Z,19.47
2023-06-22T00:53:28.387Z,19.43
2023-06-22T00:53:59.337Z,19.47
2023-06-22T00:54:30.237Z,19.47
2023-06-22T00:54:59.751Z,19.46
2023-06-22T00:55:31.684Z,19.45
2023-06-22T00:56:02.613Z,19.43
2023-06-22T00:56:32.117Z,19.43
2023-06-22T00:57:04.024Z,19.43
2023-06-22T00:57:34.978Z,19.43
2023-06-22T00:58:05.931Z,19.42
2023-06-22T00:58:36.840Z,19.42
2023-06-22T00:59:07.653Z,19.40
2023-06-22T00:59:38.560Z,19.40
2023-06-22T01:00:09.554Z,19.40
2023-06-22T01:00:40.062Z,19.38
2023-06-22T01:01:11.040Z,19.35
2023-06-22T01:01:41.967Z,19.35
2023-06-22T01:02:43.944Z,19.35
2023-06-22T01:03:14.575Z,19.31
2023-06-22T01:03:45.129Z,19.34
2023-06-22T01:04:15.633Z,19.35
2023-06-22T01:04:46.581Z,19.34
2023-06-22T01:05:17.469Z,19.35
2023-06-22T01:05:48.395Z,19.32
2023-06-22T01:06:19.319Z,19.32
2023-06-22T01:06:50.331Z,19.34
2023-06-22T01:07:21.288Z,19.32
2023-06-22T01:07:52.229Z,19.30
2023-06-22T01:08:23.420Z,19.32
2023-06-22T01:08:53.893Z,19.31
2023-06-22T01:09:24.806Z,19.30
2023-06-22T01:09:55.732Z,19.28
2023-06-22T01:10:26.840Z,19.30
2023-06-22T01:10:57.398Z,19.30
2023-06-22T01:11:28.434Z,19.30
2023-06-22T01:11:59.328Z,19.30
2023-06-22T01:12:30.240Z,19.30
2023-06-22T01:13:01.243Z,19.30
2023-06-22T01:13:32.165Z,19.31
2023-06-22T01:14:03.091Z,19.31
2023-06-22T01:14:34.029Z,19.30
2023-06-22T01:15:35.865Z,19.30
2023-06-22T01:16:06.852Z,19.30
2023-06-22T01:16:37.765Z,19.28
2023-06-22T01:17:08.768Z,19.27
2023-06-22T01:17:39.745Z,19.27
2023-06-22T01:18:10.217Z,19.27
2023-06-22T01:18:41.134Z,19.27
2023-06-22T01:19:11.670Z,19.27
2023-06-22T01:19:41.200Z,19.30
2023-06-22T01:20:13.192Z,19.28
2023-06-22T01:20:43.623Z,19.28
2023-06-22T01:21:14.564Z,19.27
2023-06-22T01:21:45.545Z,19.25
2023-06-22T01:22:16.024Z,19.27
2023-06-22T01:22:46.946Z,19.24
2023-06-22T01:23:17.876Z,19.24
2023-06-22T01:23:48.877Z,19.24
2023-06-22T01:24:18.498Z,19.23
2023-06-22T01:24:50.483Z,19.24
2023-06-22T01:25:21.463Z,19.24
2023-06-22T01:25:52.375Z,19.24
2023-06-22T01:26:23.319Z,19.24
2023-06-22T01:26:54.235Z,19.24
2023-06-22T01:27:25.158Z,19.25
2023-06-22T01:27:56.151Z,19.27
2023-06-22T01:28:27.082Z,19.25
2023-06-22T01:28:58.048Z,19.25
2023-06-22T01:29:29.025Z,19.25
2023-06-22T01:29:59.974Z,19.24
2023-06-22T01:30:31.087Z,19.25
2023-06-22T01:31:01.802Z,19.23
2023-06-22T01:31:31.379Z,19.25
2023-06-22T01:32:01.982Z,19.25
2023-06-22T01:32:34.028Z,19.25
2023-06-22T01:33:04.525Z,19.25
2023-06-22T01:33:35.437Z,19.25
2023-06-22T01:34:06.386Z,19.27
2023-06-22T01:34:37.353Z,19.28
2023-06-22T01:35:08.171Z,19.27
2023-06-22T01:35:39.139Z,19.28
2023-06-22T01:36:10.032Z,19.28
2023-06-22T01:36:40.968Z,19.28
2023-06-22T01:37:11.890Z,19.28
2023-06-22T01:37:42.832Z,19.28
2023-06-22T01:38:13.765Z,19.30
2023-06-22T01:38:43.707Z,19.31
2023-06-22T01:39:15.648Z,19.32
2023-06-22T01:39:46.589Z,19.32
2023-06-22T01:40:17.573Z,19.32
2023-06-22T01:40:48.470Z,19.30
2023-06-22T01:41:19.419Z,19.31
2023-06-22T01:41:50.361Z,19.31
2023-06-22T01:42:21.281Z,19.31
2023-06-22T01:42:52.214Z,19.30
2023-06-22T01:43:23.247Z,19.31
2023-06-22T01:43:54.222Z,19.32
2023-06-22T01:44:25.140Z,19.30
2023-06-22T01:44:56.067Z,19.31
2023-06-22T01:45:57.901Z,19.31
2023-06-22T01:46:28.798Z,19.30
2023-06-22T01:46:59.727Z,19.31
2023-06-22T01:47:29.337Z,19.28
2023-06-22T01:48:00.831Z,19.30
2023-06-22T01:48:31.789Z,19.27
2023-06-22T01:49:02.745Z,19.28
2023-06-22T01:49:33.664Z,19.25
2023-06-22T01:50:04.653Z,19.25
2023-06-22T01:50:35.548Z,19.25
2023-06-22T01:51:06.499Z,19.24
2023-06-22T01:51:37.408Z,19.23
2023-06-22T01:52:08.323Z,19.23
2023-06-22T01:52:40.989Z,19.21
2023-06-22T01:53:09.012Z,19.23
2023-06-22T01:53:40.950Z,19.21
2023-06-22T01:54:10.490Z,19.24
2023-06-22T01:54:42.392Z,19.23
2023-06-22T01:55:13.360Z,19.23
2023-06-22T01:55:44.281Z,19.24
2023-06-22T01:56:15.214Z,19.23
2023-06-22T01:56:46.139Z,19.23
2023-06-22T01:57:16.968Z,19.23
2023-06-22T01:57:46.492Z,19.21
2023-06-22T01:58:18.483Z,19.20
2023-06-22T01:58:48.933Z,19.21
2023-06-22T01:59:19.853Z,19.20
2023-06-22T01:59:50.346Z,19.20
2023-06-22T02:00:21.302Z,19.20
2023-06-22T02:00:52.208Z,19.20
2023-06-22T02:01:23.157Z,19.20
2023-06-22T02:01:54.546Z,19.20
2023-06-22T02:02:24.994Z,19.17
2023-06-22T02:03:26.954Z,19.15
2023-06-22T02:03:57.535Z,19.15
2023-06-22T02:04:28.108Z,19.15
2023-06-22T02:04:59.035Z,19.16
2023-06-22T02:05:29.957Z,19.15
2023-06-22T02:06:00.891Z,19.15
2023-06-22T02:06:31.828Z,19.13
2023-06-22T02:07:03.454Z,19.16
2023-06-22T02:07:33.368Z,19.16
2023-06-22T02:08:04.336Z,19.16
2023-06-22T02:08:35.308Z,19.15
2023-06-22T02:09:06.240Z,19.15
2023-06-22T02:09:36.748Z,19.15
2023-06-22T02:10:07.235Z,19.13
2023-06-22T02:10:38.161Z,19.12
2023-06-22T02:11:09.115Z,19.13
2023-06-22T02:11:40.064Z,19.10
2023-06-22T02:12:10.553Z,19.09
2023-06-22T02:12:41.477Z,19.09
2023-06-22T02:13:12.394Z,19.09
2023-06-22T02:13:43.337Z,19.07
2023-06-22T02:14:14.278Z,19.09
2023-06-22T02:14:45.207Z,19.09
2023-06-22T02:15:16.192Z,19.07
2023-06-22T02:16:18.075Z,19.06
2023-06-22T02:16:47.668Z,19.06
2023-06-22T02:17:19.607Z,19.06
2023-06-22T02:17:50.620Z,19.06
2023-06-22T02:18:21.098Z,19.05
2023-06-22T02:18:52.053Z,19.05
2023-06-22T02:19:23.031Z,19.05
2023-06-22T02:19:53.940Z,19.05
2023-06-22T02:20:24.930Z,19.02
2023-06-22T02:20:55.926Z,19.01
2023-06-22T02:21:26.858Z,19.01
2023-06-22T02:21:57.798Z,19.05
2023-06-22T02:22:28.712Z,19.02
2023-06-22T02:22:59.644Z,19.01
2023-06-22T02:23:30.560Z,19.01
2023-06-22T02:24:01.467Z,19.01
2023-06-22T02:24:31.128Z,19.02
2023-06-22T02:25:02.578Z,19.02
2023-06-22T02:25:33.512Z,19.01
2023-06-22T02:26:04.453Z,18.96
2023-06-22T02:26:35.371Z,18.97
2023-06-22T02:27:06.341Z,18.97
2023-06-22T02:27:37.351Z,18.96
2023-06-22T02:28:07.772Z,18.94
2023-06-22T02:28:38.689Z,18.93
2023-06-22T02:29:09.652Z,18.93
2023-06-22T02:29:40.603Z,18.93
2023-06-22T02:30:11.465Z,18.91
2023-06-22T02:30:40.855Z,18.93
2023-06-22T02:31:12.871Z,18.90
2023-06-22T02:31:43.332Z,18.90
2023-06-22T02:32:14.241Z,18.87
2023-06-22T02:32:45.274Z,18.87
2023-06-22T02:33:15.719Z,18.87
2023-06-22T02:33:47.044Z,18.87
2023-06-22T02:34:17.633Z,18.86
2023-06-22T02:34:48.573Z,18.83
2023-06-22T02:35:19.960Z,18.84
2023-06-22T02:35:50.419Z,18.86
2023-06-22T02:36:20.870Z,18.84
2023-06-22T02:36:51.838Z,18.84
2023-06-22T02:37:22.382Z,18.82
2023-06-22T02:37:52.957Z,18.82
2023-06-22T02:38:23.387Z,18.82
2023-06-22T02:38:54.339Z,18.83
2023-06-22T02:39:25.287Z,18.79
2023-06-22T02:39:55.782Z,18.78
2023-06-22T02:40:26.472Z,18.79
2023-06-22T02:40:57.007Z,18.82
2023-06-22T02:41:58.429Z,18.78
2023-06-22T02:42:29.286Z,18.79
2023-06-22T02:43:00.198Z,18.78
2023-06-22T02:43:31.145Z,18.76
2023-06-22T02:44:02.069Z,18.76
2023-06-22T02:44:32.975Z,18.75
2023-06-22T02:45:03.955Z,18.76
2023-06-22T02:45:34.894Z,18.76
2023-06-22T02:46:05.846Z,18.76
2023-06-22T02:46:36.251Z,18.79
2023-06-22T02:47:07.183Z,18.79
2023-06-22T02:47:38.089Z,18.78
2023-06-22T02:48:09.004Z,18.78
2023-06-22T02:48:39.913Z,18.79
2023-06-22T02:49:09.459Z,18.82
2023-06-22T02:49:41.381Z,18.79
2023-06-22T02:50:12.294Z,18.78
2023-06-22T02:50:43.266Z,18.76
2023-06-22T02:51:14.232Z,18.75
2023-06-22T02:51:45.109Z,18.72
2023-06-22T02:52:16.086Z,18.75
2023-06-22T02:52:47.099Z,18.72
2023-06-22T02:53:17.948Z,18.74
2023-06-22T02:53:48.863Z,18.74
2023-06-22T02:54:19.728Z,18.75
2023-06-22T02:54:50.667Z,18.75
2023-06-22T02:55:21.628Z,18.72
2023-06-22T02:55:52.515Z,18.72
2023-06-22T02:56:23.340Z,18.71
2023-06-22T02:56:54.213Z,18.72
2023-06-22T02:57:25.080Z,18.71
2023-06-22T02:57:54.655Z,18.69
2023-06-22T02:58:26.595Z,18.68
2023-06-22T02:59:28.437Z,18.65
2023-06-22T02:59:59.289Z,18.65
2023-06-22T03:00:30.353Z,18.64
2023-06-22T03:01:00.001Z,18.64
2023-06-22T03:01:31.982Z,18.65
2023-06-22T03:02:02.634Z,18.64
2023-06-22T03:02:33.567Z,18.62
2023-06-22T03:03:04.564Z,18.59
2023-06-22T03:03:34.226Z,18.57
2023-06-22T03:04:05.777Z,18.56
2023-06-22T03:04:36.644Z,18.56
2023-06-22T03:05:06.611Z,18.54
2023-06-22T03:05:38.500Z,18.54
2023-06-22T03:06:09.425Z,18.53
2023-06-22T03:06:40.313Z,18.50
2023-06-22T03:07:11.181Z,18.50
2023-06-22T03:07:42.055Z,18.49
2023-06-22T03:08:11.987Z,18.50
2023-06-22T03:08:43.864Z,18.47
2023-06-22T03:09:14.859Z,18.49
2023-06-22T03:09:44.804Z,18.49
2023-06-22T03:10:16.699Z,18.47
2023-06-22T03:10:47.561Z,18.47
2023-06-22T03:11:18.496Z,18.47
2023-06-22T03:11:48.443Z,18.47
2023-06-22T03:12:19.376Z,18.46
2023-06-22T03:12:51.268Z,18.46
2023-06-22T03:13:20.858Z,18.44
2023-06-22T03:13:52.705Z,18.41
2023-06-22T03:14:23.587Z,18.41
2023-06-22T03:14:55.001Z,18.39
2023-06-22T03:15:25.372Z,18.39
2023-06-22T03:15:56.254Z,18.41
2023-06-22T03:16:58.065Z,18.44
2023-06-22T03:17:28.994Z,18.42
2023-06-22T03:17:59.938Z,18.42
2023-06-22T03:18:30.850Z,18.42
2023-06-22T03:19:01.824Z,18.44
2023-06-22T03:19:32.728Z,18.41
2023-06-22T03:20:03.615Z,18.42
2023-06-22T03:20:34.559Z,18.44
2023-06-22T03:21:05.491Z,18.42
2023-06-22T03:21:36.396Z,18.44
2023-06-22T03:22:07.318Z,18.46
2023-06-22T03:22:38.212Z,18.46
2023-06-22T03:23:07.811Z,18.46
2023-06-22T03:23:39.760Z,18.46
2023-06-22T03:24:10.658Z,18.47
2023-06-22T03:24:41.525Z,18.46
2023-06-22T03:25:12.392Z,18.44
2023-06-22T03:25:43.259Z,18.47
2023-06-22T03:26:14.150Z,18.46
2023-06-22T03:26:43.953Z,18.46
2023-06-22T03:27:14.529Z,18.46
2023-06-22T03:27:46.516Z,18.46
2023-06-22T03:28:17.430Z,18.46
2023-06-22T03:28:48.297Z,18.49
2023-06-22T03:29:19.240Z,18.47
2023-06-22T03:29:50.166Z,18.46
2023-06-22T03:30:21.031Z,18.47
2023-06-22T03:30:51.907Z,18.46
2023-06-22T03:31:23.152Z,18.47
2023-06-22T03:31:53.618Z,18.47
2023-06-22T03:32:23.150Z,18.46
2023-06-22T03:32:55.068Z,18.49
2023-06-22T03:33:25.922Z,18.49
2023-06-22T03:33:56.787Z,18.49
2023-06-22T03:34:27.546Z,18.49
2023-06-22T03:34:58.408Z,18.49
2023-06-22T03:35:29.281Z,18.46
2023-06-22T03:36:00.166Z,18.47
2023-06-22T03:36:30.953Z,18.42
2023-06-22T03:37:01.891Z,18.44
2023-06-22T03:37:32.792Z,18.44
2023-06-22T03:38:03.665Z,18.42
2023-06-22T03:38:34.551Z,18.42
2023-06-22T03:39:05.426Z,18.44
2023-06-22T03:39:36.298Z,18.42
2023-06-22T03:40:07.246Z,18.42
2023-06-22T03:40:38.178Z,18.44
2023-06-22T03:41:09.149Z,18.44
2023-06-22T03:41:40.012Z,18.46
2023-06-22T03:42:10.866Z,18.46
2023-06-22T03:42:41.745Z,18.46
2023-06-22T03:43:12.626Z,18.46
2023-06-22T03:43:43.493Z,18.44
2023-06-22T03:44:14.404Z,18.46
2023-06-22T03:44:45.358Z,18.49
2023-06-22T03:45:16.244Z,18.50
2023-06-22T03:45:47.149Z,18.49
2023-06-22T03:46:18.075Z,18.47
2023-06-22T03:47:18.904Z,18.50
2023-06-22T03:47:50.842Z,18.49
2023-06-22T03:48:22.041Z,18.47
2023-06-22T03:48:52.395Z,18.47
2023-06-22T03:49:23.257Z,18.46
2023-06-22T03:49:54.187Z,18.44
2023-06-22T03:50:25.044Z,18.44
2023-06-22T03:50:55.925Z,18.44
2023-06-22T03:51:26.795Z,18.42
2023-06-22T03:51:56.658Z,18.42
2023-06-22T03:52:28.588Z,18.42
2023-06-22T03:52:59.514Z,18.41
2023-06-22T03:53:30.393Z,18.39
2023-06-22T03:54:02.002Z,18.41
2023-06-22T03:54:31.904Z,18.39
2023-06-22T03:55:02.753Z,18.39
2023-06-22T03:55:33.687Z,18.41
2023-06-22T03:56:04.563Z,18.39
2023-06-22T03:56:35.436Z,18.39
2023-06-22T03:57:06.320Z,18.39
2023-06-22T03:57:37.171Z,18.41
2023-06-22T03:58:08.035Z,18.41
2023-06-22T03:58:38.923Z,18.42
2023-06-22T03:59:09.857Z,18.42
2023-06-22T03:59:40.742Z,18.44
2023-06-22T04:00:11.614Z,18.46
2023-06-22T04:00:42.487Z,18.46
2023-06-22T04:01:13.401Z,18.47
2023-06-22T04:01:44.337Z,18.47
2023-06-22T04:02:15.236Z,18.47
2023-06-22T04:02:46.129Z,18.49
2023-06-22T04:03:17.139Z,18.50
2023-06-22T04:03:47.739Z,18.51
2023-06-22T04:04:18.712Z,18.51
2023-06-22T04:04:49.314Z,18.51
2023-06-22T04:05:20.218Z,18.53
2023-06-22T04:05:51.011Z,18.53
2023-06-22T04:06:21.921Z,18.51
2023-06-22T04:06:52.835Z,18.53
2023-06-22T04:07:23.673Z,18.54
2023-06-22T04:07:54.560Z,18.56
2023-06-22T04:08:25.418Z,18.54
2023-06-22T04:08:58.672Z,18.56
2023-06-22T04:09:27.256Z,18.56
2023-06-22T04:09:58.225Z,18.56
2023-06-22T04:10:29.347Z,18.56
2023-06-22T04:10:59.857Z,18.59
2023-06-22T04:11:29.443Z,18.59
2023-06-22T04:12:01.319Z,18.62
2023-06-22T04:13:03.046Z,18.62
2023-06-22T04:13:33.918Z,18.65
2023-06-22T04:14:04.817Z,18.64
2023-06-22T04:14:35.736Z,18.64
2023-06-22T04:15:06.699Z,18.66
2023-06-22T04:15:37.568Z,18.66
2023-06-22T04:16:08.440Z,18.68
2023-06-22T04:16:39.300Z,18.69
2023-06-22T04:17:10.159Z,18.69
2023-06-22T04:17:41.125Z,18.71
2023-06-22T04:18:12.135Z,18.71
2023-06-22T04:18:42.505Z,18.72
2023-06-22T04:19:12.463Z,18.72
2023-06-22T04:19:44.399Z,18.74
2023-06-22T04:20:15.314Z,18.72
2023-06-22T04:20:46.251Z,18.74
2023-06-22T04:21:17.133Z,18.76
2023-06-22T04:21:48.010Z,18.74
2023-06-22T04:22:18.975Z,18.76
2023-06-22T04:22:49.894Z,18.75
2023-06-22T04:23:20.794Z,18.78
2023-06-22T04:23:51.698Z,18.76
2023-06-22T04:24:22.605Z,18.79
2023-06-22T04:24:53.461Z,18.83
2023-06-22T04:25:23.525Z,18.83
2023-06-22T04:25:55.356Z,18.83
2023-06-22T04:26:26.273Z,18.84
2023-06-22T04:26:57.156Z,18.84
2023-06-22T04:27:28.105Z,18.86
2023-06-22T04:27:58.998Z,18.86
2023-06-22T04:28:29.868Z,18.87
2023-06-22T04:29:00.822Z,18.89
2023-06-22T04:29:31.695Z,18.89
2023-06-22T04:30:02.600Z,18.90
2023-06-22T04:30:33.524Z,18.89
2023-06-22T04:31:04.416Z,18.90
2023-06-22T04:31:35.318Z,18.91
2023-06-22T04:32:06.230Z,18.91
2023-06-22T04:32:37.161Z,18.90
2023-06-22T04:33:07.660Z,18.91
2023-06-22T04:33:38.598Z,18.93
2023-06-22T04:34:09.513Z,18.90
2023-06-22T04:34:40.439Z,18.90
2023-06-22T04:35:11.298Z,18.93
2023-06-22T04:35:42.201Z,18.93
2023-06-22T04:36:13.073Z,18.91
2023-06-22T04:36:43.957Z,18.93
2023-06-22T04:37:14.821Z,18.93
2023-06-22T04:37:45.712Z,18.97
2023-06-22T04:38:16.696Z,18.97
2023-06-22T04:38:47.168Z,18.97
2023-06-22T04:39:18.102Z,18.97
2023-06-22T04:39:49.045Z,18.97
2023-06-22T04:40:19.663Z,18.97
2023-06-22T04:40:50.292Z,18.97
2023-06-22T04:41:20.714Z,18.99
2023-06-22T04:41:51.558Z,19.01
2023-06-22T04:42:22.444Z,18.99
2023-06-22T04:42:53.399Z,18.99
2023-06-22T04:43:24.245Z,18.99
2023-06-22T04:43:55.282Z,19.01
2023-06-22T04:44:26.140Z,19.02
2023-06-22T04:44:56.632Z,19.05
2023-06-22T04:45:27.570Z,19.02
2023-06-22T04:45:58.453Z,19.05
2023-06-22T04:46:29.363Z,19.06
2023-06-22T04:47:00.847Z,19.07
2023-06-22T04:47:30.947Z,19.07
2023-06-22T04:48:32.291Z,19.09
2023-06-22T04:49:03.240Z,19.10
2023-06-22T04:49:34.285Z,19.09
2023-06-22T04:50:05.003Z,19.10
2023-06-22T04:50:35.849Z,19.10
2023-06-22T04:51:06.747Z,19.12
2023-06-22T04:51:37.620Z,19.10
2023-06-22T04:52:08.646Z,19.10
2023-06-22T04:52:38.993Z,19.12
2023-06-22T04:53:09.857Z,19.12
2023-06-22T04:53:40.731Z,19.13
2023-06-22T04:54:11.595Z,19.13
2023-06-22T04:54:45.652Z,19.15
2023-06-22T04:55:15.502Z,19.16
2023-06-22T04:55:43.178Z,19.16
2023-06-22T04:56:15.084Z,19.16
2023-06-22T04:56:45.956Z,19.17
2023-06-22T04:57:16.857Z,19.20
2023-06-22T04:57:47.757Z,19.20
2023-06-22T04:58:18.623Z,19.21
2023-06-22T04:58:49.501Z,19.21
2023-06-22T04:59:21.059Z,19.23
2023-06-22T04:59:50.925Z,19.24
2023-06-22T05:00:21.778Z,19.25
2023-06-22T05:01:23.681Z,19.27
2023-06-22T05:01:54.569Z,19.27
2023-06-22T05:02:25.524Z,19.27
2023-06-22T05:03:03.820Z,19.27
2023-06-22T05:03:27.450Z,19.27
2023-06-22T05:03:58.222Z,19.28
2023-06-22T05:04:29.021Z,19.28
2023-06-22T05:04:58.695Z,19.28
2023-06-22T05:05:29.257Z,19.32
2023-06-22T05:06:01.122Z,19.31
2023-06-22T05:06:31.974Z,19.32
2023-06-22T05:07:02.841Z,19.34
2023-06-22T05:07:33.710Z,19.34
2023-06-22T05:08:04.505Z,19.35
2023-06-22T05:08:35.395Z,19.35
2023-06-22T05:09:37.128Z,19.39
2023-06-22T05:10:07.978Z,19.38
2023-06-22T05:10:45.270Z,19.39
2023-06-22T05:11:09.710Z,19.39
2023-06-22T05:11:40.605Z,19.39
2023-06-22T05:12:11.736Z,19.39
2023-06-22T05:12:42.141Z,19.42
2023-06-22T05:13:13.029Z,19.42
2023-06-22T05:14:14.752Z,19.42
2023-06-22T05:14:46.742Z,19.43
2023-06-22T05:15:16.589Z,19.43
2023-06-22T05:15:47.460Z,19.43
2023-06-22T05:16:18.345Z,19.45
2023-06-22T05:16:49.220Z,19.43
2023-06-22T05:17:19.202Z,19.46
2023-06-22T05:17:51.233Z,19.46
2023-06-22T05:18:21.752Z,19.49
2023-06-22T05:18:52.270Z,19.49
2023-06-22T05:19:21.767Z,19.49
2023-06-22T05:19:53.665Z,19.49
2023-06-22T05:20:24.600Z,19.50
2023-06-22T05:20:55.491Z,19.49
2023-06-22T05:21:26.364Z,19.53
2023-06-22T05:21:57.215Z,19.52
2023-06-22T05:22:28.113Z,19.53
2023-06-22T05:22:59.014Z,19.53
2023-06-22T05:23:29.777Z,19.57
2023-06-22T05:24:00.653Z,19.57
2023-06-22T05:24:31.522Z,19.58
2023-06-22T05:25:02.396Z,19.60
2023-06-22T05:25:33.133Z,19.60
2023-06-22T05:26:04.011Z,19.61
2023-06-22T05:26:34.880Z,19.62
2023-06-22T05:27:04.865Z,19.62
2023-06-22T05:27:36.770Z,19.62
2023-06-22T05:28:07.611Z,19.65
2023-06-22T05:28:38.554Z,19.65
2023-06-22T05:29:09.495Z,19.65
2023-06-22T05:29:40.366Z,19.67
2023-06-22T05:30:11.234Z,19.68
2023-06-22T05:30:42.123Z,19.67
2023-06-22T05:31:13.070Z,19.67
2023-06-22T05:31:43.969Z,19.71
2023-06-22T05:32:14.840Z,19.70
2023-06-22T05:32:45.728Z,19.72
2023-06-22T05:33:16.693Z,19.71
2023-06-22T05:33:47.556Z,19.71
2023-06-22T05:34:18.426Z,19.71
2023-06-22T05:34:49.334Z,19.72
2023-06-22T05:35:20.205Z,19.76
2023-06-22T05:35:51.073Z,19.75
2023-06-22T05:36:22.009Z,19.75
2023-06-22T05:36:52.860Z,19.76
2023-06-22T05:37:23.716Z,19.76
2023-06-22T05:37:54.604Z,19.78
2023-06-22T05:38:25.464Z,19.75
2023-06-22T05:38:56.305Z,19.76
2023-06-22T05:39:57.984Z,19.79
2023-06-22T05:40:29.115Z,19.79
2023-06-22T05:40:59.759Z,19.79
2023-06-22T05:41:30.630Z,19.78
2023-06-22T05:42:01.564Z,19.79
2023-06-22T05:42:32.527Z,19.79
2023-06-22T05:43:03.358Z,19.80
2023-06-22T05:43:34.216Z,19.80
2023-06-22T05:44:04.026Z,19.82
2023-06-22T05:44:35.958Z,19.82
2023-06-22T05:45:06.821Z,19.82
2023-06-22T05:45:37.691Z,19.85
2023-06-22T05:46:08.587Z,19.83
2023-06-22T05:46:39.430Z,19.85
2023-06-22T05:47:10.301Z,19.85
2023-06-22T05:47:41.204Z,19.87
2023-06-22T05:48:12.127Z,19.90
2023-06-22T05:48:42.999Z,19.92
2023-06-22T05:49:13.990Z,19.94
2023-06-22T05:49:44.837Z,19.94
2023-06-22T05:50:15.773Z,19.95
2023-06-22T05:50:46.683Z,19.98
2023-06-22T05:51:17.562Z,20.00
2023-06-22T05:51:48.528Z,20.02
2023-06-22T05:52:19.390Z,20.02
2023-06-22T05:52:50.301Z,20.07
2023-06-22T05:53:21.264Z,20.08
2023-06-22T05:53:52.120Z,20.08
2023-06-22T05:54:22.990Z,20.12
2023-06-22T05:54:53.850Z,20.10
2023-06-22T05:55:24.719Z,20.13
2023-06-22T05:55:55.642Z,20.15
2023-06-22T05:56:26.565Z,20.16
2023-06-22T05:57:28.356Z,20.16
2023-06-22T05:57:59.381Z,20.16
2023-06-22T05:58:29.750Z,20.17
2023-06-22T05:58:59.603Z,20.16
2023-06-22T05:59:31.557Z,20.19
2023-06-22T06:00:02.420Z,20.17
2023-06-22T06:00:32.735Z,20.19
2023-06-22T06:01:04.329Z,20.17
2023-06-22T06:01:34.306Z,20.15
2023-06-22T06:02:06.344Z,20.17
2023-06-22T06:02:36.779Z,20.17
2023-06-22T06:03:06.684Z,20.16
2023-06-22T06:03:38.719Z,20.20
2023-06-22T06:04:09.730Z,20.22
2023-06-22T06:04:40.106Z,20.25
2023-06-22T06:05:11.008Z,20.30
2023-06-22T06:05:43.679Z,20.27
2023-06-22T06:06:12.521Z,20.34
2023-06-22T06:06:43.394Z,20.33
2023-06-22T06:07:14.476Z,20.34
2023-06-22T06:07:44.834Z,20.31
2023-06-22T06:08:15.692Z,20.33
2023-06-22T06:08:46.590Z,20.35
2023-06-22T06:09:16.117Z,20.34
2023-06-22T06:09:47.995Z,20.37
2023-06-22T06:10:18.891Z,20.38
2023-06-22T06:10:48.682Z,20.41
2023-06-22T06:11:20.542Z,20.41
2023-06-22T06:11:50.104Z,20.42
2023-06-22T06:12:21.885Z,20.44
2023-06-22T06:12:52.745Z,20.48
2023-06-22T06:13:23.638Z,20.50
2023-06-22T06:13:54.496Z,20.54
2023-06-22T06:14:25.362Z,20.56
2023-06-22T06:14:56.297Z,20.57
2023-06-22T06:15:26.720Z,20.58
2023-06-22T06:15:57.602Z,20.60
2023-06-22T06:16:28.555Z,20.60
2023-06-22T06:16:59.498Z,20.63
2023-06-22T06:17:29.994Z,20.64
2023-06-22T06:18:31.782Z,20.69
2023-06-22T06:19:02.661Z,20.68
2023-06-22T06:19:33.500Z,20.69
2023-06-22T06:20:03.133Z,20.73
2023-06-22T06:20:35.256Z,20.72
2023-06-22T06:21:05.759Z,20.71
2023-06-22T06:21:36.634Z,20.73
2023-06-22T06:22:07.510Z,20.73
2023-06-22T06:22:37.332Z,20.72
2023-06-22T06:23:09.243Z,20.71
2023-06-22T06:23:40.133Z,20.71
2023-06-22T06:24:11.015Z,20.69
2023-06-22T06:24:41.878Z,20.71
2023-06-22T06:25:13.082Z,20.69
2023-06-22T06:25:42.631Z,20.71
2023-06-22T06:26:44.966Z,20.72
2023-06-22T06:27:15.836Z,20.73
2023-06-22T06:27:46.689Z,20.73
2023-06-22T06:28:17.645Z,20.78
2023-06-22T06:28:48.663Z,20.78
2023-06-22T06:29:19.501Z,20.78
2023-06-22T06:29:49.858Z,20.82
2023-06-22T06:30:20.707Z,20.82
2023-06-22T06:30:51.583Z,20.82
2023-06-22T06:31:22.569Z,20.88
2023-06-22T06:31:55.054Z,20.88
2023-06-22T06:32:24.117Z,20.90
2023-06-22T06:32:55.032Z,20.93
2023-06-22T06:33:26.404Z,20.96
2023-06-22T06:33:55.539Z,20.97
2023-06-22T06:34:58.226Z,21.00
2023-06-22T06:35:29.424Z,21.01
2023-06-22T06:36:00.050Z,21.03
2023-06-22T06:36:30.901Z,21.06
2023-06-22T06:37:01.800Z,21.08
2023-06-22T06:37:32.706Z,21.09
2023-06-22T06:38:03.619Z,21.06
2023-06-22T06:38:34.456Z,21.09
2023-06-22T06:39:04.419Z,21.11
2023-06-22T06:39:36.287Z,21.09
2023-06-22T06:40:07.167Z,21.09
2023-06-22T06:40:38.099Z,21.08
2023-06-22T06:41:09.070Z,21.09
2023-06-22T06:41:39.508Z,21.08
2023-06-22T06:42:10.440Z,21.09
2023-06-22T06:42:41.547Z,21.09
2023-06-22T06:43:11.899Z,21.11
2023-06-22T06:43:43.122Z,21.11
2023-06-22T06:44:13.514Z,21.11
2023-06-22T06:44:45.156Z,21.11
2023-06-22T06:45:15.054Z,21.11
2023-06-22T06:45:46.033Z,21.12
2023-06-22T06:46:16.962Z,21.09
2023-06-22T06:46:47.903Z,21.11
2023-06-22T06:47:17.398Z,21.11
2023-06-22T06:47:49.416Z,21.11
2023-06-22T06:48:20.313Z,21.09
2023-06-22T06:48:51.218Z,21.09
2023-06-22T06:49:22.093Z,21.11